sensor_id;sensor_type;location;lat;lon;timestamp;pressure;altitude;pressure_sealevel;temperature;humidity
53868;BME280;41577;47.470;19.080;2023-10-19T00:00:06;99772.03;;;8.55;100.00
53868;BME280;41577;47.470;19.080;2023-10-19T00:00:19;99763.19;;;8.55;100.00
53868;BME280;41577;47.470;19.080;2023-10-19T00:00:33;99766.72;;;8.55;100.00
53868;BME280;41577;47.470;19.080;2023-10-19T00:00:46;99762.19;;;8.56;100.00
53868;BME280;41577;47.470;19.080;2023-10-19T00:00:58;99764.03;;;8.55;100.00
53868;BME280;41577;47.470;19.080;2023-10-19T00:01:10;99753.75;;;8.52;100.00
53868;BME280;41577;47.470;19.080;2023-10-19T00:01:22;99764.03;;;8.55;100.00
53868;BME280;41577;47.470;19.080;2023-10-19T00:01:34;99763.84;;;8.57;100.00
53868;BME280;41577;47.470;19.080;2023-10-19T00:01:47;99765.69;;;8.56;100.00
53868;BME280;41577;47.470;19.080;2023-10-19T00:01:59;99763.66;;;8.58;100.00
53868;BME280;41577;47.470;19.080;2023-10-19T00:02:11;99760.53;;;8.55;100.00
53868;BME280;41577;47.470;19.080;2023-10-19T00:02:23;99763.84;;;8.57;100.00
53868;BME280;41577;47.470;19.080;2023-10-19T00:02:35;99758.72;;;8.55;100.00
53868;BME280;41577;47.470;19.080;2023-10-19T00:02:48;99759.34;;;8.57;100.00
53868;BME280;41577;47.470;19.080;2023-10-19T00:03:01;99757.69;;;8.56;100.00
53868;BME280;41577;47.470;19.080;2023-10-19T00:03:13;99759.34;;;8.57;100.00
53868;BME280;41577;47.470;19.080;2023-10-19T00:03:25;99750.75;;;8.55;100.00
53868;BME280;41577;47.470;19.080;2023-10-19T00:03:37;99748.91;;;8.56;100.00
53868;BME280;41577;47.470;19.080;2023-10-19T00:03:50;99754.00;;;8.57;100.00
53868;BME280;41577;47.470;19.080;2023-10-19T00:04:02;99761.00;;;8.58;100.00
53868;BME280;41577;47.470;19.080;2023-10-19T00:04:14;99756.66;;;8.57;100.00
53868;BME280;41577;47.470;19.080;2023-10-19T00:04:26;99756.66;;;8.57;100.00
53868;BME280;41577;47.470;19.080;2023-10-19T00:04:38;99759.16;;;8.59;100.00
53868;BME280;41577;47.470;19.080;2023-10-19T00:04:50;99758.34;;;8.58;100.00
53868;BME280;41577;47.470;19.080;2023-10-19T00:05:02;99753.00;;;8.58;100.00
53868;BME280;41577;47.470;19.080;2023-10-19T00:05:15;99748.06;;;8.55;100.00
53868;BME280;41577;47.470;19.080;2023-10-19T00:05:27;99755.84;;;8.57;100.00
53868;BME280;41577;47.470;19.080;2023-10-19T00:05:39;99754.00;;;8.57;100.00
53868;BME280;41577;47.470;19.080;2023-10-19T00:05:50;99753.81;;;8.59;100.00
53868;BME280;41577;47.470;19.080;2023-10-19T00:06:03;99753.00;;;8.58;100.00
53868;BME280;41577;47.470;19.080;2023-10-19T00:06:15;99752.19;;;8.58;100.00
53868;BME280;41577;47.470;19.080;2023-10-19T00:06:26;99759.97;;;8.59;100.00
53868;BME280;41577;47.470;19.080;2023-10-19T00:06:38;99765.69;;;8.56;100.00
53868;BME280;41577;47.470;19.080;2023-10-19T00:06:51;99757.88;;;8.55;100.00
53868;BME280;41577;47.470;19.080;2023-10-19T00:07:03;99756.88;;;8.56;100.00
53868;BME280;41577;47.470;19.080;2023-10-19T00:07:15;99759.53;;;8.56;100.00
53868;BME280;41577;47.470;19.080;2023-10-19T00:07:28;99760.53;;;8.55;100.00
53868;BME280;41577;47.470;19.080;2023-10-19T00:07:39;99758.72;;;8.55;100.00
53868;BME280;41577;47.470;19.080;2023-10-19T00:07:51;99756.25;;;8.54;100.00
53868;BME280;41577;47.470;19.080;2023-10-19T00:08:04;99758.09;;;8.53;100.00
53868;BME280;41577;47.470;19.080;2023-10-19T00:08:17;99757.63;;;8.50;100.00
53868;BME280;41577;47.470;19.080;2023-10-19T00:08:29;99757.44;;;8.51;100.00
53868;BME280;41577;47.470;19.080;2023-10-19T00:08:41;99759.47;;;8.49;100.00
53868;BME280;41577;47.470;19.080;2023-10-19T00:08:53;99767.44;;;8.49;100.00
53868;BME280;41577;47.470;19.080;2023-10-19T00:09:05;99761.09;;;8.50;100.00
53868;BME280;41577;47.470;19.080;2023-10-19T00:09:19;99762.13;;;8.49;100.00
53868;BME280;41577;47.470;19.080;2023-10-19T00:09:31;99755.13;;;8.48;100.00
53868;BME280;41577;47.470;19.080;2023-10-19T00:09:43;99757.19;;;8.46;100.00
53868;BME280;41577;47.470;19.080;2023-10-19T00:09:55;99759.66;;;8.48;100.00
53868;BME280;41577;47.470;19.080;2023-10-19T00:10:07;99757.81;;;8.48;100.00
53868;BME280;41577;47.470;19.080;2023-10-19T00:10:19;99758.00;;;8.47;100.00
53868;BME280;41577;47.470;19.080;2023-10-19T00:10:31;99757.81;;;8.48;100.00
53868;BME280;41577;47.470;19.080;2023-10-19T00:10:47;99758.00;;;8.47;100.00
53868;BME280;41577;47.470;19.080;2023-10-19T00:10:59;99751.88;;;8.46;100.00
53868;BME280;41577;47.470;19.080;2023-10-19T00:11:11;99751.88;;;8.46;100.00
53868;BME280;41577;47.470;19.080;2023-10-19T00:11:23;99751.22;;;8.44;100.00
53868;BME280;41577;47.470;19.080;2023-10-19T00:11:35;99759.84;;;8.46;100.00
53868;BME280;41577;47.470;19.080;2023-10-19T00:11:47;99757.38;;;8.45;100.00
53868;BME280;41577;47.470;19.080;2023-10-19T00:11:59;99752.88;;;8.45;100.00
53868;BME280;41577;47.470;19.080;2023-10-19T00:12:11;99752.03;;;8.45;100.00
53868;BME280;41577;47.470;19.080;2023-10-19T00:12:23;99753.69;;;8.46;100.00
53868;BME280;41577;47.470;19.080;2023-10-19T00:12:35;99747.94;;;8.42;100.00
53868;BME280;41577;47.470;19.080;2023-10-19T00:12:50;99748.38;;;8.46;100.00
53868;BME280;41577;47.470;19.080;2023-10-19T00:13:02;99748.56;;;8.44;100.00
53868;BME280;41577;47.470;19.080;2023-10-19T00:13:14;99752.03;;;8.45;100.00
53868;BME280;41577;47.470;19.080;2023-10-19T00:13:27;99746.91;;;8.43;100.00
53868;BME280;41577;47.470;19.080;2023-10-19T00:13:39;99740.13;;;8.41;100.00
53868;BME280;41577;47.470;19.080;2023-10-19T00:13:52;99745.06;;;8.44;100.00
53868;BME280;41577;47.470;19.080;2023-10-19T00:14:04;99747.53;;;8.45;100.00
53868;BME280;41577;47.470;19.080;2023-10-19T00:14:16;99745.91;;;8.44;100.00
53868;BME280;41577;47.470;19.080;2023-10-19T00:14:28;99745.06;;;8.44;100.00
53868;BME280;41577;47.470;19.080;2023-10-19T00:14:40;99742.41;;;8.44;100.00
53868;BME280;41577;47.470;19.080;2023-10-19T00:14:52;99746.72;;;8.45;100.00
53868;BME280;41577;47.470;19.080;2023-10-19T00:15:05;99749.38;;;8.45;100.00
53868;BME280;41577;47.470;19.080;2023-10-19T00:15:17;99751.22;;;8.44;100.00
53868;BME280;41577;47.470;19.080;2023-10-19T00:15:31;99739.94;;;8.42;100.00
53868;BME280;41577;47.470;19.080;2023-10-19T00:15:43;99747.72;;;8.44;100.00
53868;BME280;41577;47.470;19.080;2023-10-19T00:15:55;99748.56;;;8.44;100.00
53868;BME280;41577;47.470;19.080;2023-10-19T00:16:08;99745.06;;;8.44;100.00
53868;BME280;41577;47.470;19.080;2023-10-19T00:16:20;99747.13;;;8.42;100.00
53868;BME280;41577;47.470;19.080;2023-10-19T00:16:32;99742.41;;;8.44;100.00
53868;BME280;41577;47.470;19.080;2023-10-19T00:16:45;99746.91;;;8.43;100.00
53868;BME280;41577;47.470;19.080;2023-10-19T00:16:57;99745.06;;;8.44;100.00
53868;BME280;41577;47.470;19.080;2023-10-19T00:17:09;99739.94;;;8.42;100.00
53868;BME280;41577;47.470;19.080;2023-10-19T00:17:21;99736.25;;;8.43;100.00
53868;BME280;41577;47.470;19.080;2023-10-19T00:17:33;99738.09;;;8.43;100.00
53868;BME280;41577;47.470;19.080;2023-10-19T00:17:45;99744.25;;;8.43;100.00
53868;BME280;41577;47.470;19.080;2023-10-19T00:17:57;99742.41;;;8.44;100.00
53868;BME280;41577;47.470;19.080;2023-10-19T00:18:09;99738.75;;;8.45;100.00
53868;BME280;41577;47.470;19.080;2023-10-19T00:18:21;99737.06;;;8.44;100.00
53868;BME280;41577;47.470;19.080;2023-10-19T00:18:33;99737.06;;;8.44;100.00
53868;BME280;41577;47.470;19.080;2023-10-19T00:18:45;99742.22;;;8.45;100.00
53868;BME280;41577;47.470;19.080;2023-10-19T00:18:57;99729.94;;;8.44;100.00
53868;BME280;41577;47.470;19.080;2023-10-19T00:19:09;99740.38;;;8.46;100.00
53868;BME280;41577;47.470;19.080;2023-10-19T00:19:20;99739.38;;;8.47;100.00
53868;BME280;41577;47.470;19.080;2023-10-19T00:19:33;99729.94;;;8.44;100.00
53868;BME280;41577;47.470;19.080;2023-10-19T00:19:45;99731.97;;;8.42;100.00
53868;BME280;41577;47.470;19.080;2023-10-19T00:19:57;99729.94;;;8.44;100.00
53868;BME280;41577;47.470;19.080;2023-10-19T00:20:10;99740.59;;;8.44;100.00
53868;BME280;41577;47.470;19.080;2023-10-19T00:20:22;99730.75;;;8.45;100.00
53868;BME280;41577;47.470;19.080;2023-10-19T00:20:34;99730.75;;;8.45;100.00
53868;BME280;41577;47.470;19.080;2023-10-19T00:20:47;99736.91;;;8.45;100.00
53868;BME280;41577;47.470;19.080;2023-10-19T00:20:59;99732.59;;;8.44;100.00
53868;BME280;41577;47.470;19.080;2023-10-19T00:21:11;99734.06;;;8.47;100.00
53868;BME280;41577;47.470;19.080;2023-10-19T00:21:23;99733.41;;;8.45;100.00
53868;BME280;41577;47.470;19.080;2023-10-19T00:21:35;99734.25;;;8.45;100.00
53868;BME280;41577;47.470;19.080;2023-10-19T00:21:47;99739.56;;;8.45;100.00
53868;BME280;41577;47.470;19.080;2023-10-19T00:21:59;99740.38;;;8.46;100.00
53868;BME280;41577;47.470;19.080;2023-10-19T00:22:11;99735.06;;;8.46;100.00
53868;BME280;41577;47.470;19.080;2023-10-19T00:22:23;99732.41;;;8.46;100.00
53868;BME280;41577;47.470;19.080;2023-10-19T00:22:35;99734.25;;;8.45;100.00
53868;BME280;41577;47.470;19.080;2023-10-19T00:22:47;99728.09;;;8.45;100.00
53868;BME280;41577;47.470;19.080;2023-10-19T00:22:59;99734.25;;;8.45;100.00
53868;BME280;41577;47.470;19.080;2023-10-19T00:23:11;99735.69;;;8.48;100.00
53868;BME280;41577;47.470;19.080;2023-10-19T00:23:23;99730.38;;;8.48;100.00
53868;BME280;41577;47.470;19.080;2023-10-19T00:23:35;99727.91;;;8.46;100.00
53868;BME280;41577;47.470;19.080;2023-10-19T00:23:47;99732.41;;;8.46;100.00
53868;BME280;41577;47.470;19.080;2023-10-19T00:23:59;99729.72;;;8.46;100.00
53868;BME280;41577;47.470;19.080;2023-10-19T00:24:11;99735.91;;;8.46;100.00
53868;BME280;41577;47.470;19.080;2023-10-19T00:24:23;99733.84;;;8.48;100.00
53868;BME280;41577;47.470;19.080;2023-10-19T00:24:35;99727.28;;;8.44;100.00
53868;BME280;41577;47.470;19.080;2023-10-19T00:24:47;99725.06;;;8.48;100.00
53868;BME280;41577;47.470;19.080;2023-10-19T00:24:59;99731.19;;;8.48;100.00
53868;BME280;41577;47.470;19.080;2023-10-19T00:25:11;99728.75;;;8.47;100.00
53868;BME280;41577;47.470;19.080;2023-10-19T00:25:23;99730.59;;;8.46;100.00
53868;BME280;41577;47.470;19.080;2023-10-19T00:25:35;99727.72;;;8.48;100.00
53868;BME280;41577;47.470;19.080;2023-10-19T00:25:48;99733.03;;;8.48;100.00
53868;BME280;41577;47.470;19.080;2023-10-19T00:26:03;99730.38;;;8.48;100.00
53868;BME280;41577;47.470;19.080;2023-10-19T00:26:16;99726.06;;;8.47;100.00
53868;BME280;41577;47.470;19.080;2023-10-19T00:26:36;99722.59;;;8.46;100.00
53868;BME280;41577;47.470;19.080;2023-10-19T00:26:49;99726.72;;;8.49;100.00
53868;BME280;41577;47.470;19.080;2023-10-19T00:27:02;99727.72;;;8.48;100.00
53868;BME280;41577;47.470;19.080;2023-10-19T00:27:14;99728.53;;;8.48;100.00
53868;BME280;41577;47.470;19.080;2023-10-19T00:27:27;99732.22;;;8.47;100.00
53868;BME280;41577;47.470;19.080;2023-10-19T00:27:41;99728.53;;;8.48;100.00
53868;BME280;41577;47.470;19.080;2023-10-19T00:27:54;99727.53;;;8.49;100.00
53868;BME280;41577;47.470;19.080;2023-10-19T00:28:07;99729.56;;;8.47;100.00
53868;BME280;41577;47.470;19.080;2023-10-19T00:28:20;99727.72;;;8.48;100.00
53868;BME280;41577;47.470;19.080;2023-10-19T00:28:33;99731.00;;;8.50;100.00
53868;BME280;41577;47.470;19.080;2023-10-19T00:28:45;99727.72;;;8.48;100.00
53868;BME280;41577;47.470;19.080;2023-10-19T00:28:58;99731.19;;;8.48;100.00
53868;BME280;41577;47.470;19.080;2023-10-19T00:29:10;99731.19;;;8.48;100.00
53868;BME280;41577;47.470;19.080;2023-10-19T00:29:22;99730.38;;;8.48;100.00
53868;BME280;41577;47.470;19.080;2023-10-19T00:29:34;99734.50;;;8.50;100.00
53868;BME280;41577;47.470;19.080;2023-10-19T00:29:47;99726.91;;;8.47;100.00
53868;BME280;41577;47.470;19.080;2023-10-19T00:29:59;99728.34;;;8.50;100.00
53868;BME280;41577;47.470;19.080;2023-10-19T00:30:12;99714.41;;;8.48;100.00
53868;BME280;41577;47.470;19.080;2023-10-19T00:30:24;99728.53;;;8.48;100.00
53868;BME280;41577;47.470;19.080;2023-10-19T00:30:36;99721.19;;;8.50;100.00
53868;BME280;41577;47.470;19.080;2023-10-19T00:30:49;99734.50;;;8.50;100.00
53868;BME280;41577;47.470;19.080;2023-10-19T00:31:01;99725.88;;;8.48;100.00
53868;BME280;41577;47.470;19.080;2023-10-19T00:31:14;99713.59;;;8.47;100.00
53868;BME280;41577;47.470;19.080;2023-10-19T00:31:27;99726.31;;;8.52;100.00
53868;BME280;41577;47.470;19.080;2023-10-19T00:31:41;99724.69;;;8.51;100.00
53868;BME280;41577;47.470;19.080;2023-10-19T00:31:53;99720.19;;;8.51;100.00
53868;BME280;41577;47.470;19.080;2023-10-19T00:32:06;99720.19;;;8.51;100.00
53868;BME280;41577;47.470;19.080;2023-10-19T00:32:19;99722.84;;;8.51;100.00
53868;BME280;41577;47.470;19.080;2023-10-19T00:32:31;99716.72;;;8.51;100.00
53868;BME280;41577;47.470;19.080;2023-10-19T00:32:43;99716.88;;;8.49;100.00
53868;BME280;41577;47.470;19.080;2023-10-19T00:32:56;99713.03;;;8.52;100.00
53868;BME280;41577;47.470;19.080;2023-10-19T00:33:09;99712.22;;;8.51;100.00
53868;BME280;41577;47.470;19.080;2023-10-19T00:33:27;99719.16;;;8.52;100.00
53868;BME280;41577;47.470;19.080;2023-10-19T00:33:40;99713.84;;;8.52;100.00
53868;BME280;41577;47.470;19.080;2023-10-19T00:33:52;99713.84;;;8.52;100.00
53868;BME280;41577;47.470;19.080;2023-10-19T00:34:17;99709.53;;;8.51;100.00
53868;BME280;41577;47.470;19.080;2023-10-19T00:34:47;99712.00;;;8.53;100.00
53868;BME280;41577;47.470;19.080;2023-10-19T00:35:20;99705.84;;;8.52;100.00
53868;BME280;41577;47.470;19.080;2023-10-19T00:35:46;99713.66;;;8.54;100.00
53868;BME280;41577;47.470;19.080;2023-10-19T00:36:10;99705.84;;;8.52;100.00
53868;BME280;41577;47.470;19.080;2023-10-19T00:36:22;99710.19;;;8.53;100.00
53868;BME280;41577;47.470;19.080;2023-10-19T00:36:35;99710.19;;;8.53;100.00
53868;BME280;41577;47.470;19.080;2023-10-19T00:36:48;99710.34;;;8.52;100.00
53868;BME280;41577;47.470;19.080;2023-10-19T00:37:00;99712.84;;;8.53;100.00
53868;BME280;41577;47.470;19.080;2023-10-19T00:37:12;99713.66;;;8.54;100.00
53868;BME280;41577;47.470;19.080;2023-10-19T00:37:23;99713.03;;;8.52;100.00
53868;BME280;41577;47.470;19.080;2023-10-19T00:37:36;99709.53;;;8.51;100.00
53868;BME280;41577;47.470;19.080;2023-10-19T00:37:48;99709.72;;;8.50;100.00
53868;BME280;41577;47.470;19.080;2023-10-19T00:38:00;99709.34;;;8.53;100.00
53868;BME280;41577;47.470;19.080;2023-10-19T00:38:12;99708.53;;;8.52;100.00
53868;BME280;41577;47.470;19.080;2023-10-19T00:38:24;99708.53;;;8.52;100.00
53868;BME280;41577;47.470;19.080;2023-10-19T00:38:37;99710.34;;;8.52;100.00
53868;BME280;41577;47.470;19.080;2023-10-19T00:38:50;99712.00;;;8.53;100.00
53868;BME280;41577;47.470;19.080;2023-10-19T00:39:02;99713.84;;;8.52;100.00
53868;BME280;41577;47.470;19.080;2023-10-19T00:39:14;99718.16;;;8.53;100.00
53868;BME280;41577;47.470;19.080;2023-10-19T00:39:26;99710.75;;;8.49;100.00
53868;BME280;41577;47.470;19.080;2023-10-19T00:39:38;99713.66;;;8.54;100.00
53868;BME280;41577;47.470;19.080;2023-10-19T00:39:54;99717.31;;;8.53;100.00
53868;BME280;41577;47.470;19.080;2023-10-19T00:40:08;99710.34;;;8.52;100.00
53868;BME280;41577;47.470;19.080;2023-10-19T00:40:22;99714.06;;;8.51;100.00
53868;BME280;41577;47.470;19.080;2023-10-19T00:40:34;99710.34;;;8.52;100.00
53868;BME280;41577;47.470;19.080;2023-10-19T00:40:52;99713.84;;;8.52;100.00
53868;BME280;41577;47.470;19.080;2023-10-19T00:41:05;99706.88;;;8.51;100.00
53868;BME280;41577;47.470;19.080;2023-10-19T00:41:18;99715.50;;;8.53;100.00
53868;BME280;41577;47.470;19.080;2023-10-19T00:41:30;99710.19;;;8.53;100.00
53868;BME280;41577;47.470;19.080;2023-10-19T00:41:42;99712.22;;;8.51;100.00
53868;BME280;41577;47.470;19.080;2023-10-19T00:41:54;99716.31;;;8.54;100.00
53868;BME280;41577;47.470;19.080;2023-10-19T00:42:06;99714.66;;;8.53;100.00
53868;BME280;41577;47.470;19.080;2023-10-19T00:42:18;99712.84;;;8.53;100.00
53868;BME280;41577;47.470;19.080;2023-10-19T00:42:31;99707.25;;;8.48;100.00
53868;BME280;41577;47.470;19.080;2023-10-19T00:42:43;99718.97;;;8.54;100.00
53868;BME280;41577;47.470;19.080;2023-10-19T00:42:55;99720.81;;;8.53;100.00
53868;BME280;41577;47.470;19.080;2023-10-19T00:43:07;99715.50;;;8.53;100.00
53868;BME280;41577;47.470;19.080;2023-10-19T00:43:29;99718.16;;;8.53;100.00
53868;BME280;41577;47.470;19.080;2023-10-19T00:43:41;99710.19;;;8.53;100.00
53868;BME280;41577;47.470;19.080;2023-10-19T00:43:53;99711.00;;;8.54;100.00
53868;BME280;41577;47.470;19.080;2023-10-19T00:44:06;99714.47;;;8.54;100.00
53868;BME280;41577;47.470;19.080;2023-10-19T00:44:18;99712.63;;;8.55;100.00
53868;BME280;41577;47.470;19.080;2023-10-19T00:44:30;99708.53;;;8.52;100.00
53868;BME280;41577;47.470;19.080;2023-10-19T00:44:42;99716.31;;;8.54;100.00
53868;BME280;41577;47.470;19.080;2023-10-19T00:44:54;99711.19;;;8.52;100.00
53868;BME280;41577;47.470;19.080;2023-10-19T00:45:07;99710.81;;;8.55;100.00
53868;BME280;41577;47.470;19.080;2023-10-19T00:45:19;99708.16;;;8.55;100.00
53868;BME280;41577;47.470;19.080;2023-10-19T00:45:31;99708.16;;;8.55;100.00
53868;BME280;41577;47.470;19.080;2023-10-19T00:45:43;99717.59;;;8.58;100.00
53868;BME280;41577;47.470;19.080;2023-10-19T00:45:56;99714.31;;;8.56;100.00
53868;BME280;41577;47.470;19.080;2023-10-19T00:46:08;99712.44;;;8.56;100.00
53868;BME280;41577;47.470;19.080;2023-10-19T00:46:20;99716.75;;;8.57;100.00
53868;BME280;41577;47.470;19.080;2023-10-19T00:46:36;99711.63;;;8.56;100.00
53868;BME280;41577;47.470;19.080;2023-10-19T00:46:48;99709.78;;;8.56;100.00
53868;BME280;41577;47.470;19.080;2023-10-19T00:47:01;99709.78;;;8.56;100.00
53868;BME280;41577;47.470;19.080;2023-10-19T00:47:13;99704.66;;;8.55;100.00
53868;BME280;41577;47.470;19.080;2023-10-19T00:47:25;99703.84;;;8.54;100.00
53868;BME280;41577;47.470;19.080;2023-10-19T00:47:38;99707.94;;;8.57;100.00
53868;BME280;41577;47.470;19.080;2023-10-19T00:47:50;99711.44;;;8.57;100.00
53868;BME280;41577;47.470;19.080;2023-10-19T00:48:03;99709.59;;;8.58;100.00
53868;BME280;41577;47.470;19.080;2023-10-19T00:48:15;99704.28;;;8.58;100.00
53868;BME280;41577;47.470;19.080;2023-10-19T00:48:27;99706.09;;;8.57;100.00
53868;BME280;41577;47.470;19.080;2023-10-19T00:48:40;99712.28;;;8.58;100.00
53868;BME280;41577;47.470;19.080;2023-10-19T00:48:55;99706.94;;;8.58;100.00
53868;BME280;41577;47.470;19.080;2023-10-19T00:49:09;99706.09;;;8.57;100.00
53868;BME280;41577;47.470;19.080;2023-10-19T00:49:22;99709.59;;;8.58;100.00
53868;BME280;41577;47.470;19.080;2023-10-19T00:49:34;99702.63;;;8.57;100.00
53868;BME280;41577;47.470;19.080;2023-10-19T00:49:47;99709.59;;;8.58;100.00
53868;BME280;41577;47.470;19.080;2023-10-19T00:50:00;99702.44;;;8.58;100.00
53868;BME280;41577;47.470;19.080;2023-10-19T00:50:12;99698.97;;;8.58;100.00
53868;BME280;41577;47.470;19.080;2023-10-19T00:50:24;99702.25;;;8.60;100.00
53868;BME280;41577;47.470;19.080;2023-10-19T00:50:37;99702.25;;;8.60;100.00
53868;BME280;41577;47.470;19.080;2023-10-19T00:50:50;99704.94;;;8.60;100.00
53868;BME280;41577;47.470;19.080;2023-10-19T00:51:02;99702.44;;;8.58;100.00
53868;BME280;41577;47.470;19.080;2023-10-19T00:51:16;99703.25;;;8.59;100.00
53868;BME280;41577;47.470;19.080;2023-10-19T00:51:32;99705.09;;;8.58;100.00
53868;BME280;41577;47.470;19.080;2023-10-19T00:51:48;99702.44;;;8.58;100.00
53868;BME280;41577;47.470;19.080;2023-10-19T00:52:01;99698.97;;;8.58;100.00
53868;BME280;41577;47.470;19.080;2023-10-19T00:52:14;99704.06;;;8.59;100.00
53868;BME280;41577;47.470;19.080;2023-10-19T00:52:26;99701.41;;;8.59;100.00
53868;BME280;41577;47.470;19.080;2023-10-19T00:52:38;99705.09;;;8.58;100.00
53868;BME280;41577;47.470;19.080;2023-10-19T00:52:50;99698.97;;;8.58;100.00
53868;BME280;41577;47.470;19.080;2023-10-19T00:53:03;99697.94;;;8.59;100.00
53868;BME280;41577;47.470;19.080;2023-10-19T00:53:16;99705.91;;;8.59;100.00
53868;BME280;41577;47.470;19.080;2023-10-19T00:53:28;99701.41;;;8.59;100.00
53868;BME280;41577;47.470;19.080;2023-10-19T00:53:40;99705.09;;;8.58;100.00
53868;BME280;41577;47.470;19.080;2023-10-19T00:53:54;99700.78;;;8.57;100.00
53868;BME280;41577;47.470;19.080;2023-10-19T00:54:10;99705.09;;;8.58;100.00
53868;BME280;41577;47.470;19.080;2023-10-19T00:54:25;99696.47;;;8.56;100.00
53868;BME280;41577;47.470;19.080;2023-10-19T00:54:40;99690.34;;;8.56;100.00
53868;BME280;41577;47.470;19.080;2023-10-19T00:54:54;99696.47;;;8.56;100.00
53868;BME280;41577;47.470;19.080;2023-10-19T00:55:06;99697.50;;;8.55;100.00
53868;BME280;41577;47.470;19.080;2023-10-19T00:55:18;99698.13;;;8.57;100.00
53868;BME280;41577;47.470;19.080;2023-10-19T00:55:30;99696.47;;;8.56;100.00
53868;BME280;41577;47.470;19.080;2023-10-19T00:55:42;99695.47;;;8.57;100.00
53868;BME280;41577;47.470;19.080;2023-10-19T00:55:56;99697.31;;;8.57;100.00
53868;BME280;41577;47.470;19.080;2023-10-19T00:56:09;99698.97;;;8.58;100.00
53868;BME280;41577;47.470;19.080;2023-10-19T00:56:21;99692.63;;;8.59;100.00
53868;BME280;41577;47.470;19.080;2023-10-19T00:56:34;99699.78;;;8.58;100.00
53868;BME280;41577;47.470;19.080;2023-10-19T00:56:47;99688.69;;;8.55;100.00
53868;BME280;41577;47.470;19.080;2023-10-19T00:57:00;99693.66;;;8.58;100.00
53868;BME280;41577;47.470;19.080;2023-10-19T00:57:12;99691.16;;;8.56;100.00
53868;BME280;41577;47.470;19.080;2023-10-19T00:57:25;99695.47;;;8.57;100.00
53868;BME280;41577;47.470;19.080;2023-10-19T00:57:37;99701.41;;;8.59;100.00
53868;BME280;41577;47.470;19.080;2023-10-19T00:57:52;99701.41;;;8.59;100.00
53868;BME280;41577;47.470;19.080;2023-10-19T00:58:05;99699.78;;;8.58;100.00
53868;BME280;41577;47.470;19.080;2023-10-19T00:58:17;99697.13;;;8.58;100.00
53868;BME280;41577;47.470;19.080;2023-10-19T00:58:29;99691.16;;;8.56;100.00
53868;BME280;41577;47.470;19.080;2023-10-19T00:58:41;99697.94;;;8.59;100.00
53868;BME280;41577;47.470;19.080;2023-10-19T00:58:53;99701.41;;;8.59;100.00
53868;BME280;41577;47.470;19.080;2023-10-19T00:59:05;99691.97;;;8.57;100.00
53868;BME280;41577;47.470;19.080;2023-10-19T00:59:19;99696.09;;;8.59;100.00
53868;BME280;41577;47.470;19.080;2023-10-19T00:59:31;99696.94;;;8.60;100.00
53868;BME280;41577;47.470;19.080;2023-10-19T00:59:44;99688.31;;;8.58;100.00
53868;BME280;41577;47.470;19.080;2023-10-19T00:59:56;99691.81;;;8.58;100.00
53868;BME280;41577;47.470;19.080;2023-10-19T01:00:08;99694.47;;;8.58;100.00
53868;BME280;41577;47.470;19.080;2023-10-19T01:00:21;99690.78;;;8.59;100.00
53868;BME280;41577;47.470;19.080;2023-10-19T01:00:33;99696.09;;;8.59;100.00
53868;BME280;41577;47.470;19.080;2023-10-19T01:00:45;99693.44;;;8.59;100.00
53868;BME280;41577;47.470;19.080;2023-10-19T01:00:57;99685.44;;;8.59;100.00
53868;BME280;41577;47.470;19.080;2023-10-19T01:01:09;99688.09;;;8.59;100.00
53868;BME280;41577;47.470;19.080;2023-10-19T01:01:23;99691.16;;;8.56;100.00
53868;BME280;41577;47.470;19.080;2023-10-19T01:01:38;99689.94;;;8.59;100.00
53868;BME280;41577;47.470;19.080;2023-10-19T01:01:52;99690.97;;;8.58;100.00
53868;BME280;41577;47.470;19.080;2023-10-19T01:02:04;99689.94;;;8.59;100.00
53868;BME280;41577;47.470;19.080;2023-10-19T01:02:16;99681.16;;;8.58;100.00
53868;BME280;41577;47.470;19.080;2023-10-19T01:02:29;99688.31;;;8.58;100.00
53868;BME280;41577;47.470;19.080;2023-10-19T01:02:42;99690.78;;;8.59;100.00
53868;BME280;41577;47.470;19.080;2023-10-19T01:02:54;99687.28;;;8.59;100.00
53868;BME280;41577;47.470;19.080;2023-10-19T01:03:06;99683.81;;;8.58;100.00
53868;BME280;41577;47.470;19.080;2023-10-19T01:03:19;99684.22;;;8.55;100.00
53868;BME280;41577;47.470;19.080;2023-10-19T01:03:32;99682.16;;;8.57;100.00
53868;BME280;41577;47.470;19.080;2023-10-19T01:03:44;99680.69;;;8.55;100.00
53868;BME280;41577;47.470;19.080;2023-10-19T01:03:57;99685.84;;;8.56;100.00
53868;BME280;41577;47.470;19.080;2023-10-19T01:04:09;99682.53;;;8.54;100.00
53868;BME280;41577;47.470;19.080;2023-10-19T01:04:22;99686.88;;;8.55;100.00
53868;BME280;41577;47.470;19.080;2023-10-19T01:04:34;99684.00;;;8.57;100.00
53868;BME280;41577;47.470;19.080;2023-10-19T01:04:48;99682.16;;;8.57;100.00
53868;BME280;41577;47.470;19.080;2023-10-19T01:05:00;99691.16;;;8.56;100.00
53868;BME280;41577;47.470;19.080;2023-10-19T01:05:12;99680.53;;;8.56;100.00
53868;BME280;41577;47.470;19.080;2023-10-19T01:05:24;99681.53;;;8.55;100.00
53868;BME280;41577;47.470;19.080;2023-10-19T01:05:36;99691.16;;;8.56;100.00
53868;BME280;41577;47.470;19.080;2023-10-19T01:05:51;99686.88;;;8.55;100.00
53868;BME280;41577;47.470;19.080;2023-10-19T01:06:05;99681.72;;;8.54;100.00
53868;BME280;41577;47.470;19.080;2023-10-19T01:06:18;99689.31;;;8.57;100.00
53868;BME280;41577;47.470;19.080;2023-10-19T01:06:29;99680.53;;;8.56;100.00
53868;BME280;41577;47.470;19.080;2023-10-19T01:06:42;99686.66;;;8.57;100.00
53868;BME280;41577;47.470;19.080;2023-10-19T01:06:54;99685.84;;;8.56;100.00
53868;BME280;41577;47.470;19.080;2023-10-19T01:07:06;99683.19;;;8.56;100.00